Time;durP1;ratioP1;P1;durP2;ratioP2;P2;SDS_P1;SDS_P2;PMS_P1;PMS_P2;Temp;Humidity;BMP_temperature;BMP_pressure;BME280_temperature;BME280_humidity;BME280_pressure;Samples;Min_cycle;Max_cycle;Signal;HPM_P1;HPM_P2
2023/05/29 00:01:00;;;;;;;5.07;4.30;;;;;;;17.48;43.90;99152.16;5149763;27;20043;-77
2023/05/29 00:03:28;;;;;;;7.07;4.63;;;;;;;17.41;43.84;99157.19;5150048;27;20287;-78
2023/05/29 00:05:56;;;;;;;8.38;4.68;;;;;;;17.38;43.89;99159.28;5149490;27;20045;-77
2023/05/29 00:08:23;;;;;;;9.85;5.10;;;;;;;17.36;43.89;99156.72;5149904;27;20039;-78
2023/05/29 00:10:50;;;;;;;7.53;4.57;;;;;;;17.37;44.14;99161.09;5149956;27;20046;-78
2023/05/29 00:13:17;;;;;;;8.13;5.47;;;;;;;17.36;43.88;99166.59;5149778;27;20367;-79
2023/05/29 00:15:43;;;;;;;7.22;5.22;;;;;;;17.35;43.76;99164.91;5148726;27;20058;-78
2023/05/29 00:18:10;;;;;;;7.45;4.90;;;;;;;17.30;44.20;99162.63;5149533;27;20042;-77
2023/05/29 00:20:37;;;;;;;7.68;4.75;;;;;;;17.26;44.15;99169.22;5150061;27;20046;-77
2023/05/29 00:23:07;;;;;;;9.45;4.72;;;;;;;17.25;43.97;99165.69;5149686;27;20031;-76
2023/05/29 00:25:34;;;;;;;7.93;5.00;;;;;;;17.22;44.33;99165.94;5148496;27;20039;-77
2023/05/29 00:28:01;;;;;;;9.10;4.20;;;;;;;17.16;44.44;99158.41;5149593;27;20191;-76
2023/05/29 00:30:28;;;;;;;10.13;3.83;;;;;;;17.15;44.11;99153.19;5149601;27;20291;-77
2023/05/29 00:32:54;;;;;;;8.88;4.40;;;;;;;17.12;44.24;99162.31;5148277;27;20046;-76
2023/05/29 00:35:21;;;;;;;9.35;4.93;;;;;;;17.08;44.59;99158.22;5149116;27;20062;-77
2023/05/29 00:37:48;;;;;;;7.05;3.92;;;;;;;17.10;44.42;99153.56;5149132;27;20291;-76
2023/05/29 00:40:16;;;;;;;5.63;3.63;;;;;;;17.07;44.50;99153.84;5148224;27;20245;-77
2023/05/29 00:42:43;;;;;;;5.88;4.43;;;;;;;16.23;44.61;99020.94;5148613;27;20066;-77
2023/05/29 00:45:13;;;;;;;6.57;4.00;;;;;;;17.00;44.22;99147.31;5149156;27;20310;-76
2023/05/29 00:47:40;;;;;;;6.18;4.18;;;;;;;16.95;44.21;99153.06;5148321;27;20043;-77
2023/05/29 00:50:09;;;;;;;6.40;3.85;;;;;;;16.47;44.38;99068.84;5148909;27;20043;-77
2023/05/29 00:52:36;;;;;;;8.27;4.75;;;;;;;16.92;44.47;99145.28;5148823;27;20039;-77
2023/05/29 00:55:03;;;;;;;5.90;4.90;;;;;;;16.88;44.44;99146.50;5149338;27;20043;-77
2023/05/29 00:57:31;;;;;;;6.00;3.53;;;;;;;16.73;44.74;99126.41;5147908;27;20042;-76
2023/05/29 00:59:59;;;;;;;6.45;4.07;;;;;;;16.88;44.55;99145.66;5148972;27;20084;-77
2023/05/29 01:02:29;;;;;;;6.35;4.13;;;;;;;16.84;44.56;99142.41;5149174;27;20062;-77
2023/05/29 01:04:56;;;;;;;6.13;3.85;;;;;;;16.83;44.40;99140.69;5148571;27;20035;-77
2023/05/29 01:07:22;;;;;;;4.53;3.53;;;;;;;16.17;44.32;99032.16;5148779;27;20325;-77
2023/05/29 01:09:49;;;;;;;5.60;3.65;;;;;;;16.33;44.06;99067.31;5148768;27;20043;-77
2023/05/29 01:12:27;;;;;;;8.82;3.80;;;;;;;16.78;44.43;99145.59;5148975;27;20035;-77
2023/05/29 01:15:09;;;;;;;6.03;3.63;;;;;;;16.75;45.08;99143.19;5148865;27;20095;-77
2023/05/29 01:17:47;;;;;;;5.72;3.45;;;;;;;16.72;44.84;99148.78;5148590;27;20034;-77
2023/05/29 01:20:28;;;;;;;5.57;3.50;;;;;;;16.70;44.75;99149.88;5147424;27;20058;-77
2023/05/29 01:23:28;;;;;;;5.53;3.40;;;;;;;16.67;45.13;99157.19;5148458;27;20080;-76
2023/05/29 01:26:08;;;;;;;5.65;3.80;;;;;;;16.65;44.94;99161.78;5116473;27;20055;-78
2023/05/29 01:28:42;;;;;;;6.00;3.67;;;;;;;16.62;45.44;99153.16;5148339;27;20230;-77
2023/05/29 01:31:11;;;;;;;5.55;3.60;;;;;;;16.61;45.25;99156.81;5148652;27;20051;-77
2023/05/29 01:33:40;;;;;;;5.15;3.38;;;;;;;16.20;45.15;99085.38;5148267;27;20250;-77
2023/05/29 01:36:07;;;;;;;6.47;3.65;;;;;;;16.52;44.99;99149.56;5148479;27;20031;-77
2023/05/29 01:38:34;;;;;;;5.43;4.22;;;;;;;16.48;45.39;99140.94;5147801;27;20058;-76
2023/05/29 01:41:02;;;;;;;7.18;3.78;;;;;;;16.46;45.25;99142.03;5147130;27;20045;-77
2023/05/29 01:43:29;;;;;;;4.47;3.28;;;;;;;16.46;45.67;99139.38;5147826;27;20050;-78
2023/05/29 01:45:58;;;;;;;5.60;4.32;;;;;;;16.45;45.48;99137.66;5147950;27;20195;-78
2023/05/29 01:48:25;;;;;;;5.40;3.30;;;;;;;16.42;45.82;99140.59;5146903;27;20034;-78
2023/05/29 01:50:55;;;;;;;5.38;4.00;;;;;;;16.40;45.50;99138.06;5148036;27;20047;-78
2023/05/29 01:53:22;;;;;;;5.85;4.00;;;;;;;16.40;45.67;99139.88;5148296;27;20047;-78
2023/05/29 01:55:49;;;;;;;5.05;3.67;;;;;;;15.85;46.18;99064.19;5146834;27;20043;-77
2023/05/29 01:58:18;;;;;;;5.82;3.90;;;;;;;16.34;46.13;99139.41;5146793;27;20344;-77
2023/05/29 02:00:45;;;;;;;6.88;3.45;;;;;;;16.32;45.67;99137.84;5147601;27;20043;-78
2023/05/29 02:03:13;;;;;;;4.65;3.10;;;;;;;16.28;45.87;99133.72;5147400;27;20066;-78
2023/05/29 02:05:40;;;;;;;6.35;3.28;;;;;;;15.99;46.36;99101.34;5147521;27;20045;-78
2023/05/29 02:08:07;;;;;;;5.55;3.50;;;;;;;16.19;45.97;99140.66;5147326;27;20244;-78
2023/05/29 02:10:34;;;;;;;7.03;3.70;;;;;;;14.03;46.00;98777.16;5146692;27;20043;-78
2023/05/29 02:13:00;;;;;;;5.47;3.58;;;;;;;16.16;46.22;99135.56;5146442;27;20035;-78
2023/05/29 02:15:27;;;;;;;5.32;3.80;;;;;;;16.15;46.24;99133.00;5147130;27;20049;-78
2023/05/29 02:17:54;;;;;;;6.95;3.97;;;;;;;16.12;46.06;99136.78;5147423;27;20039;-78
2023/05/29 02:20:22;;;;;;;7.60;3.88;;;;;;;15.98;46.09;99119.19;5147390;27;20035;-78
2023/05/29 02:22:49;;;;;;;6.13;3.38;;;;;;;16.09;45.98;99141.53;5146179;27;20255;-78
2023/05/29 02:25:16;;;;;;;7.00;3.60;;;;;;;16.02;46.19;99151.88;5147041;27;20076;-78
2023/05/29 02:27:42;;;;;;;6.43;4.95;;;;;;;15.97;46.12;99144.22;5147311;27;20275;-77
2023/05/29 02:30:10;;;;;;;6.60;3.92;;;;;;;15.95;46.47;99150.66;5147525;27;20047;-78
2023/05/29 02:32:37;;;;;;;6.53;3.67;;;;;;;15.88;46.66;99138.78;5147202;27;20043;-78
2023/05/29 02:35:04;;;;;;;4.90;3.55;;;;;;;15.73;46.68;99119.47;5146612;27;20062;-78
2023/05/29 02:37:33;;;;;;;5.47;3.78;;;;;;;15.83;46.87;99140.97;5146008;27;20051;-78
2023/05/29 02:39:59;;;;;;;8.70;4.30;;;;;;;15.82;46.54;99136.59;5145971;27;20049;-78
2023/05/29 02:42:26;;;;;;;7.28;4.25;;;;;;;15.78;46.63;99137.81;5146558;27;20219;-78
2023/05/29 02:44:54;;;;;;;6.88;4.03;;;;;;;15.76;47.06;99129.91;5147325;27;20047;-78
2023/05/29 02:47:21;;;;;;;5.32;3.78;;;;;;;15.69;46.85;99132.22;5147352;27;20099;-78
2023/05/29 02:49:48;;;;;;;7.38;4.32;;;;;;;15.68;47.26;99130.53;5146728;27;20041;-78
2023/05/29 02:52:14;;;;;;;5.75;3.50;;;;;;;15.66;47.01;99127.13;5146916;27;20257;-78
2023/05/29 02:54:43;;;;;;;5.85;3.83;;;;;;;15.66;47.21;99131.63;5147146;28;20035;-78
2023/05/29 02:57:09;;;;;;;6.43;3.88;;;;;;;15.61;47.30;99131.97;5145797;28;20043;-78
2023/05/29 02:59:37;;;;;;;7.63;4.45;;;;;;;13.30;47.37;98748.19;5145745;28;20050;-78
2023/05/29 03:02:03;;;;;;;5.68;4.40;;;;;;;15.52;47.53;99130.00;5147130;28;20039;-78
2023/05/29 03:04:30;;;;;;;7.93;3.85;;;;;;;15.50;47.79;99126.63;5145739;28;20031;-78
2023/05/29 03:06:57;;;;;;;6.97;3.40;;;;;;;15.48;47.67;99125.03;5148845;27;20049;-78
2023/05/29 03:09:24;;;;;;;5.25;4.05;;;;;;;15.45;47.35;99126.13;5149967;27;20039;-78
2023/05/29 03:11:52;;;;;;;6.45;3.75;;;;;;;15.44;47.75;99126.25;5151000;27;20099;-78
2023/05/29 03:14:21;;;;;;;5.32;3.83;;;;;;;15.42;47.50;99123.69;5150635;27;20117;-78
2023/05/29 03:16:50;;;;;;;5.05;3.60;;;;;;;15.24;47.74;99095.78;5150671;27;20062;-78
2023/05/29 03:19:17;;;;;;;6.78;3.80;;;;;;;15.40;47.76;99120.31;5149758;27;20046;-78
2023/05/29 03:21:45;;;;;;;5.97;3.70;;;;;;;15.40;47.56;99123.81;5149739;27;20049;-78
2023/05/29 03:24:13;;;;;;;7.00;3.63;;;;;;;15.38;47.68;99133.78;5149675;27;20291;-78
2023/05/29 03:26:40;;;;;;;9.68;4.32;;;;;;;15.35;47.45;99125.16;5150488;27;20057;-78
2023/05/29 03:29:08;;;;;;;5.10;3.63;;;;;;;15.32;47.64;99126.25;5150744;27;20050;-78
2023/05/29 03:31:35;;;;;;;9.32;4.22;;;;;;;15.11;47.96;99090.53;5149521;27;20038;-78
2023/05/29 03:34:02;;;;;;;5.35;3.75;;;;;;;15.17;47.83;99103.41;5150270;27;20070;-78
2023/05/29 03:36:29;;;;;;;5.25;4.00;;;;;;;15.29;47.74;99136.31;5150596;27;20039;-78
2023/05/29 03:38:55;;;;;;;6.13;3.72;;;;;;;15.26;48.18;99134.72;5150811;27;20058;-77
2023/05/29 03:41:22;;;;;;;6.90;3.55;;;;;;;15.28;47.91;99134.63;5149338;27;20043;-78
2023/05/29 03:43:49;;;;;;;5.82;3.40;;;;;;;15.26;48.21;99142.75;5149915;27;20119;-78
2023/05/29 03:46:17;;;;;;;7.07;3.67;;;;;;;15.24;48.29;99133.16;5150632;27;20045;-78
2023/05/29 03:48:44;;;;;;;6.70;4.32;;;;;;;15.22;48.05;99133.28;5150115;27;20039;-78
2023/05/29 03:51:11;;;;;;;6.53;3.33;;;;;;;15.22;48.32;99143.94;5150351;27;20046;-78
2023/05/29 03:53:38;;;;;;;6.05;3.85;;;;;;;15.21;48.01;99152.06;5150151;27;20276;-78
2023/05/29 03:56:05;;;;;;;6.63;3.97;;;;;;;15.03;48.31;99117.81;5150238;27;20039;-78
2023/05/29 03:58:32;;;;;;;5.70;3.78;;;;;;;15.19;48.24;99148.66;5149876;27;20058;-78
2023/05/29 04:00:58;;;;;;;4.95;3.58;;;;;;;15.17;48.61;99155.94;5150152;27;20247;-77
2023/05/29 04:03:29;;;;;;;6.05;3.50;;;;;;;15.15;48.76;99157.88;5149783;27;20061;-78
2023/05/29 04:05:56;;;;;;;6.68;4.55;;;;;;;15.13;48.81;99157.16;5149139;27;20294;-78
2023/05/29 04:08:23;;;;;;;6.15;4.07;;;;;;;15.11;48.77;99162.59;5148815;27;20199;-78
2023/05/29 04:10:53;;;;;;;8.82;4.50;;;;;;;12.92;48.89;98793.63;5150185;27;20039;-78
2023/05/29 04:13:20;;;;;;;5.47;4.22;;;;;;;14.57;48.80;99083.13;5149601;27;20035;-78
2023/05/29 04:15:47;;;;;;;6.45;3.97;;;;;;;15.05;49.13;99165.75;5149440;27;20039;-78
2023/05/29 04:18:13;;;;;;;6.05;3.97;;;;;;;15.06;49.08;99160.28;5148824;27;20047;-78
2023/05/29 04:20:42;;;;;;;5.15;3.42;;;;;;;15.04;48.82;99161.38;5148587;27;20047;-78
2023/05/29 04:23:08;;;;;;;5.38;3.83;;;;;;;15.04;49.01;99164.91;5149508;27;20366;-78
2023/05/29 04:25:36;;;;;;;8.55;4.90;;;;;;;15.04;48.91;99164.91;5149314;27;20034;-78
2023/05/29 04:28:03;;;;;;;4.80;3.72;;;;;;;15.03;49.16;99168.53;5149294;27;20299;-78
2023/05/29 04:30:32;;;;;;;6.18;4.50;;;;;;;15.03;49.37;99168.53;5149203;27;20034;-78
2023/05/29 04:32:59;;;;;;;6.28;4.40;;;;;;;15.05;49.34;99169.25;5149229;27;20176;-78
2023/05/29 04:35:27;;;;;;;5.28;3.88;;;;;;;15.11;49.20;99175.09;5149497;27;20043;-78
2023/05/29 04:37:56;;;;;;;6.93;3.85;;;;;;;15.15;49.35;99171.22;5149134;27;20035;-78
2023/05/29 04:40:23;;;;;;;6.88;3.97;;;;;;;15.16;48.93;99178.28;5149547;27;20051;-78
2023/05/29 04:42:50;;;;;;;5.63;3.85;;;;;;;15.18;48.90;99182.53;5148683;27;20112;-78
2023/05/29 04:45:19;;;;;;;7.78;4.82;;;;;;;15.22;49.12;99184.00;5148127;27;20088;-78
2023/05/29 04:47:49;;;;;;;7.30;4.25;;;;;;;15.29;49.32;99184.38;5148095;27;20065;-78
2023/05/29 04:50:18;;;;;;;6.30;4.28;;;;;;;15.29;49.23;99190.56;5149166;27;20292;-78
2023/05/29 04:52:45;;;;;;;6.93;4.30;;;;;;;15.29;49.16;99187.88;5147987;27;20031;-78
2023/05/29 04:55:13;;;;;;;6.10;3.95;;;;;;;15.33;49.42;99185.84;5148001;27;20059;-78
2023/05/29 04:57:40;;;;;;;5.28;3.67;;;;;;;15.33;49.08;99185.84;5147876;27;20047;-78
2023/05/29 05:00:13;;;;;;;7.03;4.30;;;;;;;14.99;49.39;99131.53;5148977;27;20039;-78
2023/05/29 05:02:40;;;;;;;6.32;4.40;;;;;;;15.42;49.44;99198.47;5147958;27;20315;-78
2023/05/29 05:05:08;;;;;;;6.93;3.85;;;;;;;15.51;49.15;99186.22;5147781;27;20084;-78
2023/05/29 05:07:34;;;;;;;5.22;4.05;;;;;;;15.55;48.96;99188.53;5147657;27;20054;-78
2023/05/29 05:10:04;;;;;;;7.18;4.57;;;;;;;15.60;48.90;99189.03;5148773;27;20053;-78
2023/05/29 05:12:32;;;;;;;6.32;3.80;;;;;;;15.63;48.94;99194.13;5148995;27;20043;-78
2023/05/29 05:14:59;;;;;;;7.20;4.22;;;;;;;15.68;49.15;99201.81;5148000;27;20056;-78
2023/05/29 05:17:26;;;;;;;5.70;3.95;;;;;;;15.70;48.94;99198.03;5130244;27;20092;-78
2023/05/29 05:19:54;;;;;;;7.35;4.32;;;;;;;15.76;49.07;99203.88;5148301;27;20035;-78
2023/05/29 05:22:21;;;;;;;7.60;4.00;;;;;;;15.80;48.87;99195.50;5130425;27;20295;-78
2023/05/29 05:24:48;;;;;;;5.53;4.10;;;;;;;15.86;49.19;99196.84;5148137;27;20211;-78
2023/05/29 05:27:15;;;;;;;6.30;4.40;;;;;;;15.93;48.52;99198.06;5148456;27;20106;-77
2023/05/29 05:29:43;;;;;;;4.82;3.92;;;;;;;15.98;48.35;99190.50;5148015;27;20039;-78
2023/05/29 05:32:10;;;;;;;7.35;4.40;;;;;;;16.04;48.71;99206.06;5147200;27;20035;-78
2023/05/29 05:34:36;;;;;;;4.65;3.53;;;;;;;16.10;48.19;99196.69;5148180;27;20110;-78
2023/05/29 05:37:04;;;;;;;6.47;3.75;;;;;;;16.15;48.01;99203.38;5148218;27;20317;-78
2023/05/29 05:39:30;;;;;;;6.50;4.00;;;;;;;16.22;48.05;99203.72;5147563;27;20088;-78
2023/05/29 05:41:57;;;;;;;5.07;3.30;;;;;;;16.28;47.95;99201.41;5146722;27;20045;-78
2023/05/29 05:44:24;;;;;;;5.38;3.70;;;;;;;16.18;47.82;99178.22;5147830;27;20100;-78
2023/05/29 05:46:52;;;;;;;4.22;3.33;;;;;;;16.37;47.41;99202.50;5148086;27;20106;-78
2023/05/29 05:49:19;;;;;;;5.75;3.67;;;;;;;16.40;47.19;99202.25;5148313;27;20045;-77
2023/05/29 05:51:46;;;;;;;5.60;3.47;;;;;;;16.45;47.61;99204.53;5148221;27;20057;-78
2023/05/29 05:54:12;;;;;;;5.63;3.72;;;;;;;16.51;47.19;99206.72;5146723;27;20039;-78
2023/05/29 05:56:39;;;;;;;5.57;3.50;;;;;;;16.53;46.63;99197.59;5146708;27;20031;-78
2023/05/29 05:59:06;;;;;;;6.30;3.42;;;;;;;16.53;46.71;99196.75;5146659;27;20049;-78
2023/05/29 06:01:33;;;;;;;6.43;3.10;;;;;;;16.59;46.72;99204.25;5146685;27;20117;-78
2023/05/29 06:04:01;;;;;;;4.70;3.10;;;;;;;16.65;46.63;99196.56;5146591;27;20041;-78
2023/05/29 06:06:28;;;;;;;6.13;3.50;;;;;;;16.71;46.76;99208.63;5147942;27;20050;-78
2023/05/29 06:08:56;;;;;;;5.13;3.25;;;;;;;16.75;46.68;99209.22;5147795;27;20039;-78
2023/05/29 06:11:23;;;;;;;6.07;3.58;;;;;;;16.79;46.62;99219.56;5147304;27;20345;-78
2023/05/29 06:13:50;;;;;;;4.97;3.08;;;;;;;16.85;46.69;99213.69;5147774;27;20046;-78
2023/05/29 06:16:16;;;;;;;5.47;3.00;;;;;;;16.91;46.52;99217.69;5146985;27;20039;-78
2023/05/29 06:18:44;;;;;;;6.50;3.20;;;;;;;16.95;46.68;99206.59;5147707;27;20084;-78
2023/05/29 06:21:13;;;;;;;5.25;3.45;;;;;;;17.00;46.55;99208.88;5147180;27;20050;-78
2023/05/29 06:23:41;;;;;;;10.45;3.92;;;;;;;17.05;46.54;99216.53;5147278;27;20031;-78
2023/05/29 06:26:08;;;;;;;6.70;3.83;;;;;;;17.11;46.02;99218.69;5147065;27;20031;-78
2023/05/29 06:28:35;;;;;;;9.48;4.05;;;;;;;16.27;46.02;99074.03;5146179;27;20043;-78
2023/05/29 06:31:02;;;;;;;8.02;4.13;;;;;;;16.97;46.42;99187.72;5146169;27;20043;-78
2023/05/29 06:33:29;;;;;;;7.22;3.92;;;;;;;17.24;45.80;99228.28;5146100;27;20062;-78
2023/05/29 06:35:56;;;;;;;5.00;3.50;;;;;;;17.28;45.95;99226.19;5147394;27;20043;-78
2023/05/29 06:38:24;;;;;;;4.38;3.20;;;;;;;17.34;45.58;99228.34;5147072;27;20099;-78
2023/05/29 06:40:51;;;;;;;6.85;3.45;;;;;;;17.38;45.75;99224.41;5146299;27;20042;-78
2023/05/29 06:43:18;;;;;;;8.20;4.15;;;;;;;17.41;45.12;99225.97;5145522;27;20338;-78
2023/05/29 06:45:45;;;;;;;6.20;3.53;;;;;;;17.43;45.38;99224.88;5146821;27;20058;-78
2023/05/29 06:48:11;;;;;;;5.57;3.42;;;;;;;17.49;45.21;99239.56;5145885;27;20038;-78
2023/05/29 06:50:38;;;;;;;5.07;3.03;;;;;;;17.55;45.08;99231.88;5145915;27;20035;-78
2023/05/29 06:53:05;;;;;;;5.50;3.58;;;;;;;17.59;44.97;99230.63;5146617;27;20051;-78
2023/05/29 06:55:33;;;;;;;8.35;3.80;;;;;;;17.68;45.54;99236.19;5147092;28;20039;-78
2023/05/29 06:58:00;;;;;;;6.70;3.65;;;;;;;17.77;45.26;99233.56;5146513;28;20049;-78
2023/05/29 07:00:27;;;;;;;5.47;3.35;;;;;;;17.42;45.05;99163.38;5147168;27;20043;-78
2023/05/29 07:02:53;;;;;;;5.47;3.97;;;;;;;17.92;45.11;99234.06;5145453;28;20039;-78
2023/05/29 07:05:20;;;;;;;5.00;3.47;;;;;;;18.00;44.81;99236.06;5146534;28;20039;-78
2023/05/29 07:07:47;;;;;;;6.63;3.67;;;;;;;18.10;44.36;99239.66;5147097;28;20043;-78
2023/05/29 07:10:14;;;;;;;4.30;3.15;;;;;;;18.15;44.66;99235.56;5146695;28;20100;-79
2023/05/29 07:12:42;;;;;;;8.20;3.72;;;;;;;18.17;43.90;99238.13;5146831;27;20031;-79
2023/05/29 07:15:10;;;;;;;7.57;3.40;;;;;;;18.23;44.37;99238.44;5146387;27;20047;-78
2023/05/29 07:17:36;;;;;;;5.28;3.60;;;;;;;18.31;44.42;99231.53;5146889;28;20045;-78
2023/05/29 07:20:07;;;;;;;5.68;4.07;;;;;;;18.18;43.90;99191.53;5146650;28;20039;-79
2023/05/29 07:22:34;;;;;;;4.35;3.47;;;;;;;18.49;43.92;99229.88;5145494;28;20039;-79
2023/05/29 07:25:04;;;;;;;7.25;3.47;;;;;;;18.46;43.23;99214.06;5145482;28;20035;-79
2023/05/29 07:27:35;;;;;;;4.82;3.72;;;;;;;18.64;43.18;99236.59;5145403;28;20047;-79
2023/05/29 07:30:05;;;;;;;5.65;3.30;;;;;;;18.36;43.45;99170.28;5146599;28;20107;-79
2023/05/29 07:32:32;;;;;;;6.85;3.25;;;;;;;16.73;43.36;98864.16;5145567;28;20039;-78
2023/05/29 07:34:58;;;;;;;5.63;3.50;;;;;;;17.07;42.82;98896.81;5146234;28;20043;-78
2023/05/29 07:37:25;;;;;;;7.35;3.13;;;;;;;19.23;42.84;99233.81;5145470;28;20049;-78
2023/05/29 07:39:52;;;;;;;6.43;3.28;;;;;;;19.43;42.31;99241.88;5146331;27;20055;-79
2023/05/29 07:42:19;;;;;;;4.50;3.03;;;;;;;19.54;42.45;99250.63;5145202;28;20043;-78
2023/05/29 07:44:46;;;;;;;6.35;3.80;;;;;;;19.42;42.15;99200.72;5146261;28;20063;-78
2023/05/29 07:47:14;;;;;;;5.78;3.95;;;;;;;19.93;41.98;99244.34;5145292;28;20088;-78
2023/05/29 07:49:41;;;;;;;5.68;4.18;;;;;;;20.08;41.61;99248.25;5146681;28;20084;-78
2023/05/29 07:52:08;;;;;;;5.63;3.38;;;;;;;20.20;41.25;99244.38;5146045;27;20229;-79
2023/05/29 07:54:35;;;;;;;5.32;3.13;;;;;;;20.00;40.96;99195.19;5149156;27;20047;-78
2023/05/29 07:57:03;;;;;;;4.50;3.15;;;;;;;20.29;40.97;99230.06;5148826;27;20054;-79
2023/05/29 07:59:30;;;;;;;6.00;3.30;;;;;;;20.05;40.90;99195.59;5149971;27;20054;-79
2023/05/29 08:01:58;;;;;;;5.13;3.80;;;;;;;20.10;40.70;99198.69;5150415;27;20035;-79
2023/05/29 08:04:27;;;;;;;5.95;3.20;;;;;;;20.41;40.37;99252.25;5149857;27;20180;-79
2023/05/29 08:06:53;;;;;;;5.30;3.60;;;;;;;20.47;40.39;99243.56;5150185;27;20050;-79
2023/05/29 08:09:20;;;;;;;6.32;3.75;;;;;;;20.52;40.40;99243.97;5148897;27;20043;-78
2023/05/29 08:11:47;;;;;;;6.38;3.33;;;;;;;20.28;40.38;99201.47;5148689;27;20077;-79
2023/05/29 08:14:15;;;;;;;5.05;3.42;;;;;;;20.66;40.35;99245.31;5149517;27;20080;-79
2023/05/29 08:16:41;;;;;;;4.93;3.13;;;;;;;20.70;40.44;99244.00;5148589;27;20059;-79
2023/05/29 08:19:09;;;;;;;6.60;3.85;;;;;;;20.73;40.16;99241.84;5148454;27;20031;-79
2023/05/29 08:21:37;;;;;;;7.13;3.63;;;;;;;20.75;40.13;99244.38;5149727;27;20241;-78
2023/05/29 08:24:05;;;;;;;6.07;3.00;;;;;;;20.57;40.06;99212.06;5149018;27;20168;-78
2023/05/29 08:26:32;;;;;;;8.32;3.40;;;;;;;20.78;40.19;99250.31;5148499;27;20241;-79
2023/05/29 08:28:59;;;;;;;5.25;3.95;;;;;;;20.81;40.33;99239.25;5148146;27;20057;-79
2023/05/29 08:31:30;;;;;;;5.07;3.38;;;;;;;20.89;40.14;99251.09;5148388;27;20047;-78
2023/05/29 08:33:57;;;;;;;4.90;3.20;;;;;;;20.95;40.17;99245.09;5148445;27;20035;-79
2023/05/29 08:36:25;;;;;;;4.65;3.00;;;;;;;21.04;39.97;99236.13;5149130;27;20295;-79
2023/05/29 08:38:54;;;;;;;5.43;3.47;;;;;;;21.13;39.80;99235.19;5149238;27;20095;-79
2023/05/29 08:41:25;;;;;;;6.20;3.67;;;;;;;21.23;39.40;99233.28;5149122;27;20102;-79
2023/05/29 08:43:53;;;;;;;5.25;3.25;;;;;;;21.29;39.16;99243.44;5148930;27;20088;-79
2023/05/29 08:46:20;;;;;;;6.90;2.97;;;;;;;21.36;39.13;99236.41;5149430;27;20031;-79
2023/05/29 08:48:49;;;;;;;5.82;2.80;;;;;;;21.44;38.31;99241.88;5149423;27;20065;-79
2023/05/29 08:51:20;;;;;;;5.43;3.17;;;;;;;21.31;38.34;99202.84;5149714;27;20047;-79
2023/05/29 08:53:48;;;;;;;5.03;3.00;;;;;;;21.45;38.78;99202.28;5148144;27;20096;-79
2023/05/29 08:56:16;;;;;;;6.63;3.40;;;;;;;21.20;38.58;99135.72;5149358;27;20042;-79
2023/05/29 08:58:45;;;;;;;7.55;3.72;;;;;;;21.79;38.11;99210.44;5149391;27;20088;-80
2023/05/29 09:01:12;;;;;;;5.90;3.20;;;;;;;21.27;38.06;99107.97;5157362;27;20198;-80
2023/05/29 09:03:39;;;;;;;5.18;2.90;;;;;;;22.10;38.00;99238.63;5155178;27;20080;-80
2023/05/29 09:06:07;;;;;;;7.25;3.80;;;;;;;22.15;37.69;99234.59;5149006;27;20043;-77
2023/05/29 09:08:36;;;;;;;8.23;3.97;;;;;;;22.17;37.47;99235.28;5148663;27;20031;-77
2023/05/29 09:11:03;;;;;;;6.28;3.88;;;;;;;22.23;37.68;99235.47;5149868;27;20039;-79
2023/05/29 09:13:32;;;;;;;7.15;3.63;;;;;;;20.21;37.53;98879.31;5151020;27;20042;-79
2023/05/29 09:15:59;;;;;;;5.43;3.50;;;;;;;22.33;37.42;99228.09;5154481;27;20060;-80
2023/05/29 09:18:30;;;;;;;6.05;4.40;;;;;;;22.41;37.10;99230.03;5151805;27;20039;-80
2023/05/29 09:20:56;;;;;;;5.47;4.18;;;;;;;22.51;37.47;99233.44;5152563;27;20100;-80
2023/05/29 09:23:23;;;;;;;5.25;3.97;;;;;;;22.56;36.67;99232.97;5151305;27;20031;-80
2023/05/29 09:25:53;;;;;;;8.07;3.67;;;;;;;22.58;36.11;99230.97;5151529;27;20035;-80
2023/05/29 09:28:23;;;;;;;7.38;3.90;;;;;;;22.56;36.79;99212.22;5152397;27;20071;-80
2023/05/29 09:30:51;;;;;;;5.28;3.45;;;;;;;22.78;36.86;99232.38;5149486;27;20058;-79
2023/05/29 09:33:19;;;;;;;5.75;3.45;;;;;;;22.89;36.62;99233.91;5148188;27;20043;-78
2023/05/29 09:35:47;;;;;;;7.03;3.65;;;;;;;22.96;36.61;99229.53;5149026;27;20047;-78
2023/05/29 09:38:15;;;;;;;6.35;3.72;;;;;;;22.99;36.55;99229.19;5147903;27;20039;-79
2023/05/29 09:40:45;;;;;;;4.97;3.13;;;;;;;23.08;36.64;99244.41;5147939;27;20039;-77
2023/05/29 09:43:13;;;;;;;4.60;2.90;;;;;;;23.11;36.51;99227.00;5147910;27;20055;-78
2023/05/29 09:45:41;;;;;;;9.70;3.70;;;;;;;22.98;36.38;99189.66;5147882;27;20251;-78
2023/05/29 09:48:18;;;;;;;9.15;3.70;;;;;;;23.24;35.28;99225.50;5147699;27;20182;-78
2023/05/29 09:50:47;;;;;;;4.68;2.80;;;;;;;22.13;36.05;99031.50;5148042;27;20082;-78
2023/05/29 09:53:20;;;;;;;5.57;3.63;;;;;;;23.31;35.25;99221.13;5148584;27;20084;-79
2023/05/29 09:55:47;;;;;;;5.53;3.15;;;;;;;23.40;36.18;99229.25;5147798;27;20035;-79
2023/05/29 09:58:15;;;;;;;6.13;3.55;;;;;;;23.52;36.54;99233.31;5147543;27;20246;-79
2023/05/29 10:00:43;;;;;;;6.97;3.58;;;;;;;23.63;36.16;99228.38;5147527;27;20030;-78
2023/05/29 10:03:12;;;;;;;4.82;3.60;;;;;;;23.73;35.67;99227.34;5147487;27;20045;-79
2023/05/29 10:05:39;;;;;;;5.50;3.95;;;;;;;23.81;35.84;99230.06;5146863;27;20295;-79
2023/05/29 10:08:09;;;;;;;6.07;4.70;;;;;;;23.91;35.79;99223.44;5147928;27;20088;-79
2023/05/29 10:10:38;;;;;;;5.93;4.05;;;;;;;24.02;35.29;99216.84;5148076;27;20195;-79
2023/05/29 10:13:10;;;;;;;7.57;3.25;;;;;;;24.11;35.11;99218.50;5146992;27;20054;-79
2023/05/29 10:15:38;;;;;;;5.68;3.75;;;;;;;24.13;35.64;99218.31;5145781;27;20184;-78
2023/05/29 10:18:12;;;;;;;4.90;3.28;;;;;;;24.24;35.58;99217.94;5146326;27;20233;-79
2023/05/29 10:20:42;;;;;;;8.52;3.90;;;;;;;24.31;35.20;99210.81;5147112;27;20039;-78
2023/05/29 10:23:10;;;;;;;6.97;3.08;;;;;;;24.42;34.99;99204.16;5147042;27;20060;-79
2023/05/29 10:25:37;;;;;;;6.82;3.88;;;;;;;24.44;34.57;99197.53;5146011;27;20110;-79
2023/05/29 10:28:05;;;;;;;7.70;5.40;;;;;;;24.26;34.06;99165.31;5147184;27;20347;-79
2023/05/29 10:30:38;;;;;;;8.68;6.05;;;;;;;24.51;33.19;99201.22;5147093;27;20043;-79
2023/05/29 10:33:19;;;;;;;6.97;3.97;;;;;;;24.58;32.39;99190.53;5146152;27;20046;-79
2023/05/29 10:35:49;;;;;;;5.22;3.60;;;;;;;24.68;33.11;99195.75;5145927;27;20176;-78
2023/05/29 10:38:18;;;;;;;5.18;3.50;;;;;;;24.77;33.03;99190.09;5146422;27;20049;-79
2023/05/29 10:40:45;;;;;;;5.47;3.50;;;;;;;24.84;32.57;99182.09;5146684;27;20050;-79
2023/05/29 10:43:32;;;;;;;6.07;3.25;;;;;;;24.76;29.78;99185.69;5146051;27;20059;-79
2023/05/29 10:45:58;;;;;;;6.38;4.30;;;;;;;24.63;32.60;99148.31;5146477;27;20136;-79
2023/05/29 10:48:42;;;;;;;5.63;4.03;;;;;;;24.87;30.04;99174.44;5146699;27;20055;-79
2023/05/29 10:51:26;;;;;;;6.32;3.50;;;;;;;24.75;29.85;99154.22;5146701;27;20229;-79
2023/05/29 10:53:53;;;;;;;7.60;4.53;;;;;;;24.12;31.87;99037.97;5147199;27;20035;-79
2023/05/29 10:56:24;;;;;;;8.00;4.63;;;;;;;25.06;30.91;99188.56;5145732;28;20346;-79
2023/05/29 10:58:54;;;;;;;8.82;4.50;;;;;;;25.14;31.26;99180.38;5147196;27;20034;-78
2023/05/29 11:01:23;;;;;;;9.65;4.72;;;;;;;24.71;30.90;99108.69;5146366;28;20314;-79
2023/05/29 11:03:52;;;;;;;7.13;3.90;;;;;;;25.07;31.14;99157.72;5145762;28;20038;-79
2023/05/29 11:06:23;;;;;;;8.27;4.10;;;;;;;25.10;30.53;99179.91;5146496;28;20027;-78
2023/05/29 11:08:56;;;;;;;10.48;7.95;;;;;;;24.74;29.04;99157.09;5146360;28;20114;-78
2023/05/29 11:11:34;;;;;;;12.43;11.07;;;;;;;24.85;28.17;99173.78;5146437;28;20192;-78
2023/05/29 11:14:05;;;;;;;7.28;4.82;;;;;;;24.83;30.30;99185.81;5146863;27;20105;-78
2023/05/29 11:16:41;;;;;;;6.57;4.90;;;;;;;24.89;28.94;99171.56;5146445;28;20076;-78
2023/05/29 11:19:10;;;;;;;11.32;4.25;;;;;;;24.90;30.51;99174.09;5145505;28;20043;-77
2023/05/29 11:21:54;;;;;;;6.32;3.78;;;;;;;24.91;29.00;99164.09;5146365;28;20059;-78
2023/05/29 11:24:25;;;;;;;7.78;3.92;;;;;;;24.98;30.45;99169.63;5146337;28;20353;-78
2023/05/29 11:26:53;;;;;;;5.45;3.28;;;;;;;25.10;30.66;99179.91;5146979;27;20035;-78
2023/05/29 11:29:23;;;;;;;5.45;3.65;;;;;;;25.16;29.53;99173.75;5150919;27;20096;-77
2023/05/29 11:31:56;;;;;;;5.72;4.03;;;;;;;25.09;30.10;99145.69;5150328;27;20047;-78
2023/05/29 11:34:24;;;;;;;7.32;4.78;;;;;;;24.83;30.18;99090.97;5150423;27;20045;-78
2023/05/29 11:36:54;;;;;;;7.18;4.88;;;;;;;25.42;29.90;99177.97;5150158;27;20035;-78
2023/05/29 11:39:20;;;;;;;6.93;5.28;;;;;;;25.51;31.17;99177.69;5132367;27;20042;-78